createdAt,value
2024-01-05T00:01:28.197Z,99957.63
2024-01-05T00:04:31.397Z,99954.50
2024-01-05T00:07:34.113Z,99957.81
2024-01-05T00:10:36.784Z,99960.31
2024-01-05T00:13:39.483Z,99958.38
2024-01-05T00:16:42.380Z,99955.41
2024-01-05T00:19:45.359Z,99950.75
2024-01-05T00:22:48.406Z,99949.13
2024-01-05T00:25:51.038Z,99954.44
2024-01-05T00:28:54.535Z,99955.25
2024-01-05T00:31:57.311Z,99971.72
2024-01-05T00:35:00.335Z,99965.91
2024-01-05T00:38:03.087Z,99968.63
2024-01-05T00:41:06.232Z,99978.94
2024-01-05T00:44:08.643Z,99970.06
2024-01-05T00:47:11.419Z,99974.62
2024-01-05T00:50:13.898Z,99980.91
2024-01-05T00:53:16.715Z,99984.63
2024-01-05T00:56:19.173Z,99981.38
2024-01-05T00:59:22.438Z,99990.34
2024-01-05T01:02:25.144Z,99981.62
2024-01-05T01:05:28.024Z,99981.84
2024-01-05T01:08:30.479Z,99982.88
2024-01-05T01:11:33.475Z,99980.88
2024-01-05T01:14:36.213Z,99985.56
2024-01-05T01:17:39.046Z,99981.34
2024-01-05T01:20:41.480Z,99976.97
2024-01-05T01:23:44.256Z,99982.28
2024-01-05T01:26:46.969Z,99981.16
2024-01-05T01:29:50.013Z,99979.38
2024-01-05T01:32:52.851Z,99991.28
2024-01-05T01:35:55.659Z,100002.41
2024-01-05T01:38:58.117Z,100017.53
2024-01-05T01:42:01.342Z,100028.75
2024-01-05T01:45:04.371Z,100025.97
2024-01-05T01:48:07.596Z,100021.94
2024-01-05T01:51:10.824Z,100011.88
2024-01-05T01:54:14.101Z,100012.97
2024-01-05T01:57:19.077Z,100017.19
2024-01-05T02:00:22.036Z,100011.09
2024-01-05T02:03:25.380Z,100016.97
2024-01-05T02:06:28.059Z,100008.47
2024-01-05T02:09:31.783Z,100009.72
2024-01-05T02:12:34.398Z,100002.25
2024-01-05T02:15:37.245Z,100005.16
2024-01-05T02:18:40.107Z,100011.72
2024-01-05T02:21:48.480Z,100004.28
2024-01-05T02:24:51.155Z,100005.56
2024-01-05T02:27:54.145Z,99976.84
2024-01-05T02:30:59.737Z,99967.22
2024-01-05T02:34:03.150Z,99960.44
2024-01-05T02:37:05.861Z,99967.50
2024-01-05T02:40:09.814Z,99957.66
2024-01-05T02:43:12.558Z,99966.91
2024-01-05T02:46:15.244Z,99969.25
2024-01-05T02:49:18.052Z,99977.72
2024-01-05T02:52:21.069Z,99985.81
2024-01-05T02:55:23.574Z,99992.81
2024-01-05T02:58:26.247Z,100001.94
2024-01-05T03:01:28.744Z,100011.56
2024-01-05T03:04:31.817Z,100019.50
2024-01-05T03:07:34.529Z,100015.81
2024-01-05T03:10:37.258Z,100024.75
2024-01-05T03:13:40.008Z,100008.78
2024-01-05T03:16:43.238Z,100000.72
2024-01-05T03:19:46.135Z,100006.47
2024-01-05T03:22:49.070Z,100007.88
2024-01-05T03:25:54.744Z,100000.63
2024-01-05T03:29:00.051Z,100007.41
2024-01-05T03:32:02.496Z,100014.63
2024-01-05T03:35:05.619Z,100025.59
2024-01-05T03:38:08.327Z,100013.00
2024-01-05T03:41:11.764Z,100018.88
2024-01-05T03:44:21.411Z,100001.88
2024-01-05T03:47:24.342Z,100013.19
2024-01-05T03:50:27.006Z,100018.34
2024-01-05T03:53:30.451Z,100026.41
2024-01-05T03:56:43.856Z,100041.78
2024-01-05T03:59:46.955Z,100031.28
2024-01-05T04:02:49.684Z,100032.72
2024-01-05T04:05:52.713Z,100044.72
2024-01-05T04:08:55.513Z,100046.97
2024-01-05T04:11:59.048Z,100063.50
2024-01-05T04:15:01.699Z,100060.91
2024-01-05T04:18:05.657Z,100060.84
2024-01-05T04:21:08.188Z,100061.37
2024-01-05T04:24:12.109Z,100050.75
2024-01-05T04:27:14.880Z,100049.59
2024-01-05T04:30:18.058Z,100051.28
2024-01-05T04:33:20.634Z,100043.59
2024-01-05T04:36:23.456Z,100069.72
2024-01-05T04:39:26.246Z,100070.44
2024-01-05T04:42:29.846Z,100065.19
2024-01-05T04:45:32.663Z,100067.59
2024-01-05T04:48:35.983Z,100062.44
2024-01-05T04:51:39.653Z,100068.16
2024-01-05T04:54:43.782Z,100052.81
2024-01-05T04:57:46.708Z,100071.97
2024-01-05T05:00:49.980Z,100072.06
2024-01-05T05:03:52.836Z,100059.00
2024-01-05T05:06:55.719Z,100060.53
2024-01-05T05:09:58.402Z,100069.47
2024-01-05T05:13:01.368Z,100069.03
2024-01-05T05:16:04.063Z,100079.25
2024-01-05T05:19:06.937Z,100081.47
2024-01-05T05:22:09.748Z,100075.09
2024-01-05T05:25:12.813Z,100083.50
2024-01-05T05:28:15.293Z,100086.09
2024-01-05T05:31:18.326Z,100077.13
2024-01-05T05:34:21.137Z,100089.72
2024-01-05T05:37:24.005Z,100087.78
2024-01-05T05:40:26.915Z,100093.53
2024-01-05T05:43:29.835Z,100103.75
2024-01-05T05:46:32.210Z,100097.06
2024-01-05T05:49:35.080Z,100098.34
2024-01-05T05:52:37.668Z,100101.63
2024-01-05T05:55:40.665Z,100094.25
2024-01-05T05:58:43.112Z,100110.72
2024-01-05T06:01:46.805Z,100113.62
2024-01-05T06:04:49.866Z,100118.56
2024-01-05T06:07:52.532Z,100119.97
2024-01-05T06:10:55.467Z,100117.53
2024-01-05T06:13:58.410Z,100126.84
2024-01-05T06:17:01.191Z,100132.25
2024-01-05T06:20:04.658Z,100132.25
2024-01-05T06:23:08.238Z,100125.94
2024-01-05T06:26:10.923Z,100135.41
2024-01-05T06:29:13.918Z,100142.66
2024-01-05T06:32:16.624Z,100140.19
2024-01-05T06:35:19.616Z,100140.47
2024-01-05T06:38:22.337Z,100139.97
2024-01-05T06:41:25.451Z,100147.09
2024-01-05T06:44:27.884Z,100148.38
2024-01-05T06:47:30.669Z,100144.44
2024-01-05T06:50:36.280Z,100123.66
2024-01-05T06:53:40.166Z,100131.25
2024-01-05T06:56:43.861Z,100126.28
2024-01-05T06:59:47.251Z,100135.97
2024-01-05T07:02:50.018Z,100142.25
2024-01-05T07:05:52.745Z,100129.88
2024-01-05T07:08:55.433Z,100128.81
2024-01-05T07:11:58.561Z,100117.28
2024-01-05T07:15:02.067Z,100124.38
2024-01-05T07:18:07.469Z,100123.41
2024-01-05T07:21:10.443Z,100113.72
2024-01-05T07:24:16.975Z,100116.56
2024-01-05T07:27:19.530Z,100097.56
2024-01-05T07:33:25.995Z,100106.97
2024-01-05T07:36:29.506Z,100094.44
2024-01-05T07:39:32.110Z,100078.88
2024-01-05T07:42:35.081Z,100090.09
2024-01-05T07:45:37.611Z,100085.72
2024-01-05T07:48:42.172Z,100081.25
2024-01-05T07:51:45.105Z,100071.56
2024-01-05T07:54:48.202Z,100074.22
2024-01-05T07:57:50.995Z,100067.34
2024-01-05T08:00:56.648Z,100085.28
2024-01-05T08:04:01.242Z,100083.88
2024-01-05T08:07:05.136Z,100080.56
2024-01-05T08:10:11.287Z,100092.66
2024-01-05T08:13:14.060Z,100088.63
2024-01-05T08:18:48.614Z,100093.91
2024-01-05T08:21:55.671Z,100104.41
2024-01-05T08:24:58.962Z,100105.88
2024-01-05T08:28:03.652Z,100090.88
2024-01-05T08:31:07.007Z,100098.22
2024-01-05T08:34:10.420Z,100094.53
2024-01-05T08:37:13.152Z,100104.09
2024-01-05T08:40:16.182Z,100114.78
2024-01-05T08:43:19.314Z,100092.78
2024-01-05T08:46:22.320Z,100114.34
2024-01-05T08:49:25.394Z,100110.06
2024-01-05T08:52:28.440Z,100108.84
2024-01-05T08:55:30.927Z,100104.59
2024-01-05T08:58:33.666Z,100105.28
2024-01-05T09:01:38.937Z,100123.47
2024-01-05T09:04:43.075Z,100136.50
2024-01-05T09:07:45.509Z,100128.00
2024-01-05T09:10:48.641Z,100153.94
2024-01-05T09:13:51.184Z,100145.03
2024-01-05T09:16:54.197Z,100139.34
2024-01-05T09:19:56.779Z,100125.00
2024-01-05T09:23:01.238Z,100128.09
2024-01-05T09:26:04.571Z,100132.19
2024-01-05T09:29:07.875Z,100132.47
2024-01-05T09:32:10.707Z,100134.59
2024-01-05T09:35:13.940Z,100132.78
2024-01-05T09:38:16.615Z,100132.50
2024-01-05T09:41:19.398Z,100132.97
2024-01-05T09:44:22.630Z,100136.53
2024-01-05T09:47:25.633Z,100125.78
2024-01-05T09:50:28.514Z,100110.44
2024-01-05T09:53:31.357Z,100099.47
2024-01-05T09:56:34.272Z,100098.44
2024-01-05T09:59:40.040Z,100088.22
2024-01-05T10:02:51.890Z,100080.78
2024-01-05T10:05:55.315Z,100077.16
2024-01-05T10:09:01.277Z,100072.56
2024-01-05T10:12:13.443Z,100058.22
2024-01-05T10:15:16.280Z,100052.94
2024-01-05T10:18:23.039Z,100052.31
2024-01-05T10:21:27.804Z,100049.84
2024-01-05T10:24:31.545Z,100050.94
2024-01-05T10:27:34.352Z,100051.59
2024-01-05T10:30:37.376Z,100050.16
2024-01-05T10:33:53.084Z,100049.19
2024-01-05T10:37:06.161Z,100031.44
2024-01-05T10:40:17.833Z,100036.31
2024-01-05T10:43:23.874Z,100031.78
2024-01-05T10:46:27.354Z,100023.66
2024-01-05T10:49:31.890Z,100019.69
2024-01-05T10:52:35.059Z,99997.12
2024-01-05T10:55:39.521Z,99992.87
2024-01-05T10:58:43.681Z,99987.78
2024-01-05T11:01:48.841Z,99986.25
2024-01-05T11:05:12.858Z,99984.28
2024-01-05T11:08:41.315Z,99984.16
2024-01-05T11:12:07.062Z,99980.06
2024-01-05T11:15:19.562Z,99976.28
2024-01-05T11:18:37.758Z,99965.72
2024-01-05T11:21:55.915Z,99962.66
2024-01-05T11:24:59.421Z,99961.59
2024-01-05T11:28:03.356Z,99959.78
2024-01-05T11:31:06.425Z,99964.88
2024-01-05T11:34:09.839Z,99971.00
2024-01-05T11:37:12.619Z,99965.81
2024-01-05T11:40:34.164Z,99956.34
2024-01-05T11:43:39.059Z,99937.56
2024-01-05T11:46:52.737Z,99919.81
2024-01-05T11:49:55.520Z,99924.44
2024-01-05T11:53:20.629Z,99919.81
2024-01-05T11:56:26.421Z,99922.03
2024-01-05T11:59:29.468Z,99928.00
2024-01-05T12:02:31.905Z,99929.47
2024-01-05T12:05:34.766Z,99935.22
2024-01-05T12:08:37.742Z,99940.47
2024-01-05T12:11:40.408Z,99950.53
2024-01-05T12:14:42.920Z,99936.97
2024-01-05T12:17:45.911Z,99942.28
2024-01-05T12:20:53.935Z,99937.59
2024-01-05T12:23:57.818Z,99932.13
2024-01-05T12:27:00.916Z,99935.88
2024-01-05T12:30:06.217Z,99921.41
2024-01-05T12:33:09.715Z,99915.81
2024-01-05T12:36:24.340Z,99915.69
2024-01-05T12:39:26.921Z,99922.06
2024-01-05T12:42:29.896Z,99912.91
2024-01-05T12:45:32.377Z,99910.06
2024-01-05T12:48:35.384Z,99900.56
2024-01-05T12:51:48.103Z,99901.25
2024-01-05T12:54:51.094Z,99898.56
2024-01-05T12:57:53.941Z,99890.78
2024-01-05T13:01:00.386Z,99876.59
2024-01-05T13:04:04.348Z,99889.75
2024-01-05T13:07:09.828Z,99882.69
2024-01-05T13:10:12.973Z,99887.97
2024-01-05T13:13:15.927Z,99883.84
2024-01-05T13:16:19.106Z,99888.34
2024-01-05T13:19:22.220Z,99885.47
2024-01-05T13:22:25.054Z,99878.81
2024-01-05T13:25:28.098Z,99883.19
2024-01-05T13:28:36.672Z,99883.28
2024-01-05T13:31:40.066Z,99876.31
2024-01-05T13:34:42.713Z,99879.69
2024-01-05T13:37:45.633Z,99875.16
2024-01-05T13:40:48.104Z,99876.88
2024-01-05T13:43:51.276Z,99868.84
2024-01-05T13:46:54.010Z,99858.88
2024-01-05T13:49:56.848Z,99872.97
2024-01-05T13:53:00.299Z,99872.56
2024-01-05T13:56:03.706Z,99870.66
2024-01-05T13:59:06.154Z,99870.84
2024-01-05T14:02:08.999Z,99866.28
2024-01-05T14:05:11.807Z,99877.41
2024-01-05T14:08:16.670Z,99863.44
2024-01-05T14:11:19.433Z,99858.97
2024-01-05T14:14:22.206Z,99853.59
2024-01-05T14:17:25.230Z,99857.81
2024-01-05T14:20:27.951Z,99855.06
2024-01-05T14:23:30.978Z,99845.34
2024-01-05T14:26:34.104Z,99849.44
2024-01-05T14:29:37.144Z,99850.09
2024-01-05T14:32:40.597Z,99857.75
2024-01-05T14:35:44.049Z,99859.47
2024-01-05T14:38:47.054Z,99863.50
2024-01-05T14:41:50.083Z,99859.06
2024-01-05T14:44:53.772Z,99858.00
2024-01-05T14:47:57.732Z,99869.91
2024-01-05T14:51:01.313Z,99878.31
2024-01-05T14:54:04.715Z,99878.87
2024-01-05T14:57:07.605Z,99869.88
2024-01-05T15:00:11.495Z,99877.00
2024-01-05T15:03:13.999Z,99875.88
2024-01-05T15:06:24.930Z,99879.16
2024-01-05T15:09:28.313Z,99879.00
2024-01-05T15:12:31.377Z,99884.13
2024-01-05T15:15:34.352Z,99871.06
2024-01-05T15:18:37.260Z,99869.13
2024-01-05T15:21:40.721Z,99885.41
2024-01-05T15:24:46.563Z,99886.94
2024-01-05T15:27:51.501Z,99871.03
2024-01-05T15:30:56.041Z,99879.00
2024-01-05T15:33:58.739Z,99882.34
2024-01-05T15:37:01.733Z,99871.94
2024-01-05T15:40:05.080Z,99879.72
2024-01-05T15:43:08.107Z,99877.94
2024-01-05T15:46:11.659Z,99882.19
2024-01-05T15:49:14.882Z,99879.47
2024-01-05T15:52:17.707Z,99869.88
2024-01-05T15:55:23.219Z,99882.84
2024-01-05T15:58:26.044Z,99884.50
2024-01-05T16:01:29.006Z,99870.75
2024-01-05T16:04:34.576Z,99871.94
2024-01-05T16:07:37.323Z,99877.28
2024-01-05T16:10:40.200Z,99865.84
2024-01-05T16:13:43.516Z,99874.69
2024-01-05T16:16:47.110Z,99867.69
2024-01-05T16:19:50.116Z,99870.16
2024-01-05T16:22:53.428Z,99878.81
2024-01-05T16:25:56.202Z,99879.59
2024-01-05T16:28:59.185Z,99875.19
2024-01-05T16:32:01.844Z,99875.19
2024-01-05T16:35:05.803Z,99863.81
2024-01-05T16:38:10.186Z,99866.34
2024-01-05T16:41:16.588Z,99867.41
2024-01-05T16:44:19.042Z,99868.28
2024-01-05T16:47:22.503Z,99876.94
2024-01-05T16:50:26.197Z,99869.22
2024-01-05T16:53:34.425Z,99871.03
2024-01-05T16:56:45.910Z,99871.16
2024-01-05T16:59:51.883Z,99874.84
2024-01-05T17:02:55.174Z,99875.03
2024-01-05T17:05:57.955Z,99880.00
2024-01-05T17:09:00.527Z,99863.87
2024-01-05T17:12:06.650Z,99880.53
2024-01-05T17:15:10.074Z,99880.25
2024-01-05T17:18:13.233Z,99883.59
2024-01-05T17:21:15.942Z,99872.34
2024-01-05T17:24:19.524Z,99870.47
2024-01-05T17:27:22.328Z,99873.72
2024-01-05T17:30:25.973Z,99875.25
2024-01-05T17:33:28.802Z,99870.69
2024-01-05T17:36:31.863Z,99874.56
2024-01-05T17:39:35.845Z,99872.25
2024-01-05T17:42:39.846Z,99882.50
2024-01-05T17:45:43.433Z,99878.84
2024-01-05T17:48:47.286Z,99879.44
2024-01-05T17:51:50.994Z,99880.22
2024-01-05T17:54:54.445Z,99869.22
2024-01-05T17:57:58.001Z,99869.56
2024-01-05T18:01:05.893Z,99865.56
2024-01-05T18:04:15.957Z,99846.34
2024-01-05T18:07:19.710Z,99868.88
2024-01-05T18:10:23.940Z,99862.63
2024-01-05T18:13:27.382Z,99863.34
2024-01-05T18:16:37.094Z,99870.13
2024-01-05T18:19:42.303Z,99874.22
2024-01-05T18:22:47.368Z,99875.81
2024-01-05T18:25:50.971Z,99872.16
2024-01-05T18:28:55.325Z,99873.81
2024-01-05T18:31:59.803Z,99877.03
2024-01-05T18:35:03.713Z,99875.03
2024-01-05T18:38:07.363Z,99884.28
2024-01-05T18:41:21.203Z,99885.09
2024-01-05T18:44:24.870Z,99892.81
2024-01-05T18:47:28.912Z,99873.44
2024-01-05T18:50:31.453Z,99883.28
2024-01-05T18:53:34.471Z,99890.28
2024-01-05T18:56:37.138Z,99881.88
2024-01-05T18:59:40.010Z,99884.47
2024-01-05T19:02:42.591Z,99876.50
2024-01-05T19:05:45.945Z,99873.25
2024-01-05T19:08:48.881Z,99874.91
2024-01-05T19:11:52.725Z,99871.50
2024-01-05T19:14:55.811Z,99878.44
2024-01-05T19:17:58.801Z,99878.56
2024-01-05T19:21:05.428Z,99882.88
2024-01-05T19:24:10.152Z,99873.22
2024-01-05T19:27:12.986Z,99870.50
2024-01-05T19:30:16.288Z,99879.09
2024-01-05T19:33:19.299Z,99876.44
2024-01-05T19:36:22.609Z,99870.13
2024-01-05T19:39:26.012Z,99870.66
2024-01-05T19:42:28.880Z,99865.28
2024-01-05T19:45:31.678Z,99863.34
2024-01-05T19:48:38.320Z,99865.66
2024-01-05T19:51:48.320Z,99858.34
2024-01-05T19:54:55.333Z,99857.28
2024-01-05T19:57:58.146Z,99856.22
2024-01-05T20:01:04.063Z,99862.91
2024-01-05T20:04:07.454Z,99853.56
2024-01-05T20:07:10.055Z,99847.56
2024-01-05T20:10:14.030Z,99851.78
2024-01-05T20:13:19.022Z,99846.81
2024-01-05T20:16:22.291Z,99839.78
2024-01-05T20:19:25.178Z,99834.25
2024-01-05T20:22:27.925Z,99825.47
2024-01-05T20:25:31.331Z,99826.03
2024-01-05T20:28:34.420Z,99830.00
2024-01-05T20:31:37.312Z,99827.97
2024-01-05T20:34:40.592Z,99835.41
2024-01-05T20:37:43.750Z,99826.47
2024-01-05T20:40:47.373Z,99819.34
2024-01-05T20:43:50.100Z,99822.69
2024-01-05T20:46:53.147Z,99825.28
2024-01-05T20:49:56.299Z,99814.91
2024-01-05T20:53:11.066Z,99814.84
2024-01-05T20:56:15.396Z,99804.56
2024-01-05T20:59:18.380Z,99803.00
2024-01-05T21:02:20.858Z,99804.78
2024-01-05T21:05:23.965Z,99801.38
2024-01-05T21:08:28.669Z,99793.63
2024-01-05T21:11:31.484Z,99791.03
2024-01-05T21:14:37.161Z,99784.91
2024-01-05T21:17:40.298Z,99790.06
2024-01-05T21:20:43.646Z,99793.63
2024-01-05T21:23:46.650Z,99802.31
2024-01-05T21:26:49.159Z,99799.97
2024-01-05T21:29:52.129Z,99787.69
2024-01-05T21:32:54.933Z,99781.69
2024-01-05T21:35:57.911Z,99783.62
2024-01-05T21:39:00.667Z,99781.84
2024-01-05T21:42:04.582Z,99780.22
2024-01-05T21:45:08.148Z,99774.97
2024-01-05T21:48:11.106Z,99768.97
2024-01-05T21:51:15.130Z,99774.97
2024-01-05T21:54:18.359Z,99773.94
2024-01-05T21:57:21.108Z,99769.66
2024-01-05T22:00:23.948Z,99765.28
2024-01-05T22:03:27.045Z,99767.81
2024-01-05T22:06:30.540Z,99763.53
2024-01-05T22:09:33.629Z,99764.22
2024-01-05T22:12:36.292Z,99760.69
2024-01-05T22:15:39.224Z,99756.13
2024-01-05T22:18:41.876Z,99750.91
2024-01-05T22:21:44.771Z,99750.97
2024-01-05T22:24:47.835Z,99744.09
2024-01-05T22:27:51.311Z,99750.09
2024-01-05T22:30:54.145Z,99737.91
2024-01-05T22:33:57.442Z,99733.38
2024-01-05T22:37:07.129Z,99721.88
2024-01-05T22:40:10.175Z,99714.19
2024-01-05T22:43:12.583Z,99729.75
2024-01-05T22:46:17.426Z,99721.88
2024-01-05T22:49:20.322Z,99716.78
2024-01-05T22:52:23.449Z,99723.66
2024-01-05T22:55:26.055Z,99716.72
2024-01-05T22:58:28.764Z,99717.59
2024-01-05T23:01:31.323Z,99715.88
2024-01-05T23:04:34.504Z,99713.38
2024-01-05T23:07:37.438Z,99709.03
2024-01-05T23:10:40.411Z,99682.53
2024-01-05T23:13:42.980Z,99708.91
2024-01-05T23:16:48.279Z,99702.09
2024-01-05T23:19:51.491Z,99692.56
2024-01-05T23:22:54.527Z,99700.31
2024-01-05T23:25:57.230Z,99701.25
2024-01-05T23:29:00.190Z,99699.62
2024-01-05T23:32:03.967Z,99683.03
2024-01-05T23:35:07.347Z,99691.69
2024-01-05T23:38:10.063Z,99690.59
2024-01-05T23:41:14.138Z,99688.84
2024-01-05T23:44:16.880Z,99678.38
2024-01-05T23:47:19.980Z,99687.56
2024-01-05T23:50:22.735Z,99675.97
2024-01-05T23:53:25.427Z,99666.84
2024-01-05T23:56:28.120Z,99652.72
2024-01-05T23:59:30.860Z,99672.63
